Morris, IL

7:05 PM CDT on April 23, 2018 (GMT -0500)
Morris

Weather History for KC09 - March, 2013

Change the Weather History Date:

Sunday, March 24, 2013

  Actual Average (KARR) Record (KARR)
Temperature  
Mean Temperature 34 °F -  
Max Temperature 36 °F 49 °F 82 °F (2017)
Min Temperature 31 °F 30 °F 17 °F (2015)
Degree Days  
Heating Degree Days 32    
Moisture  
Dew Point 28 °F    
Average Humidity 79    
Maximum Humidity 100    
Minimum Humidity 64    
Precipitation  
Precipitation 0.01 in - - ()
Sea Level Pressure  
Sea Level Pressure 29.78 in    
Wind  
Wind Speed 8 mph (NE)    
Max Wind Speed 17 mph    
Max Gust Speed 25 mph    
Visibility 8 miles    
Events Rain , Snow    
Averages and records for this station are not official NWS values.
T = Trace of Precipitation, MM = Missing Value Source: NWS Daily Summary

Daily Weather History Graph

Daily Weather History Graph

Search for Another Location

Airport or City:

Astronomy

Mar. 24, 2013 Rise Set
Actual Time 6:49 AM CDT 7:10 PM CDT
Civil Twilight 6:22 AM CDT 7:38 PM CDT
Nautical Twilight 5:49 AM CDT 8:10 PM CDT
Astronomical Twilight 5:16 AM CDT 8:44 PM CDT
Moon 4:37 PM CDT 5:01 AM CDT
Length of Visible Light 13h 16m
Length of Day
12h 20m
Waxing Gibbous, 92% of the Moon is Illuminated
Mar 24
Waxing Gibbous
Mar 27
Full
Apr 2
Last Quarter
Apr 10
New
Apr 18
First Quarter

Hourly Weather History & Observations

Time (CDT) Temp. Windchill Dew Point Humidity Pressure Visibility Wind Dir Wind Speed Gust Speed Precip Events Conditions
12:15 AM 32.0 °F - 26.6 °F 80% 30.01 in 10.0 mi Calm Calm - N/A   Scattered Clouds
12:35 AM 31.8 °F 28.5 °F 26.4 °F 80% 30.01 in 10.0 mi NNE 3.5 mph - N/A   Scattered Clouds
12:55 AM 32.0 °F 28.7 °F 26.1 °F 79% 30.00 in 10.0 mi NNE 3.5 mph - N/A   Scattered Clouds
1:15 AM 32.0 °F 27.5 °F 26.4 °F 80% 29.99 in 10.0 mi NNE 4.6 mph - N/A   Mostly Cloudy
1:35 AM 32.0 °F 27.5 °F 26.6 °F 80% 29.99 in 10.0 mi NNE 4.6 mph - N/A   Mostly Cloudy
1:55 AM 32.0 °F 27.5 °F 26.2 °F 79% 29.98 in 10.0 mi NNE 4.6 mph - N/A   Overcast
2:15 AM 32.4 °F 29.1 °F 25.9 °F 77% 29.98 in 10.0 mi NNE 3.5 mph - N/A   Scattered Clouds
2:35 AM 32.0 °F 28.7 °F 26.6 °F 80% 29.98 in 10.0 mi NNE 3.5 mph - N/A   Scattered Clouds
2:55 AM 32.0 °F - 26.4 °F 80% 29.98 in 10.0 mi Calm Calm - N/A   Overcast
3:15 AM 32.0 °F 27.5 °F 25.9 °F 78% 29.96 in 10.0 mi NE 4.6 mph - N/A   Mostly Cloudy
3:35 AM 32.0 °F 27.5 °F 26.1 °F 79% 29.95 in 10.0 mi NE 4.6 mph - N/A   Overcast
3:55 AM 32.5 °F 27.1 °F 25.7 °F 76% 29.94 in 10.0 mi ENE 5.8 mph - N/A   Overcast
4:15 AM 32.7 °F 26.4 °F 25.3 °F 74% 29.94 in 10.0 mi ENE 6.9 mph - N/A   Overcast
4:35 AM 32.7 °F 25.7 °F 25.2 °F 74% 29.93 in 10.0 mi ENE 8.1 mph - N/A   Overcast
4:55 AM 32.5 °F 24.2 °F 25.5 °F 75% 29.90 in 10.0 mi ENE 10.4 mph - N/A   Overcast
5:15 AM 32.5 °F 23.2 °F 25.7 °F 76% 29.89 in 10.0 mi East 12.7 mph - N/A   Overcast
5:35 AM 32.5 °F 22.7 °F 25.7 °F 76% 29.88 in 10.0 mi East 13.8 mph 17.3 mph N/A   Overcast
5:55 AM 32.9 °F 23.7 °F 25.5 °F 74% 29.88 in 10.0 mi East 12.7 mph - N/A   Overcast
6:15 AM 32.9 °F 24.1 °F 25.7 °F 75% 29.87 in 10.0 mi East 11.5 mph 18.4 mph N/A   Overcast
6:35 AM 32.4 °F 22.1 °F 26.4 °F 79% 29.86 in 10.0 mi East 15.0 mph 18.4 mph N/A   Overcast
6:55 AM 32.0 °F 23.6 °F 26.6 °F 80% 29.87 in 10.0 mi East 10.4 mph - N/A   Overcast
7:15 AM 32.0 °F 24.8 °F 26.6 °F 80% 29.86 in 10.0 mi East 8.1 mph - N/A   Overcast
7:35 AM 32.2 °F 25.8 °F 27.0 °F 81% 29.86 in 10.0 mi ENE 6.9 mph - N/A   Mostly Cloudy
7:55 AM 32.5 °F 24.8 °F 27.3 °F 81% 29.86 in 10.0 mi ENE 9.2 mph - N/A   Overcast
8:15 AM 32.9 °F 23.7 °F 27.1 °F 79% 29.85 in 10.0 mi ENE 12.7 mph - N/A   Overcast
8:35 AM 32.9 °F 24.7 °F 27.3 °F 80% 29.84 in 10.0 mi ENE 10.4 mph - N/A   Overcast
8:55 AM 33.8 °F 27.0 °F 27.5 °F 78% 29.83 in 10.0 mi ENE 8.1 mph - N/A   Overcast
9:15 AM 34.7 °F 26.4 °F 27.1 °F 74% 29.81 in 10.0 mi ENE 11.5 mph 18.4 mph N/A   Overcast
9:35 AM 34.9 °F 26.6 °F 26.8 °F 72% 29.78 in 10.0 mi ENE 11.5 mph 18.4 mph N/A   Scattered Clouds
9:55 AM 36.1 °F 27.7 °F 26.4 °F 68% 29.78 in 10.0 mi ENE 12.7 mph 20.7 mph N/A   Mostly Cloudy
10:15 AM 35.8 °F 27.3 °F 25.7 °F 67% 29.78 in 10.0 mi ENE 12.7 mph 20.7 mph N/A   Overcast
10:35 AM 36.5 °F 27.8 °F 25.9 °F 65% 29.77 in 10.0 mi ENE 13.8 mph 23.0 mph N/A   Mostly Cloudy
10:55 AM 36.0 °F 26.7 °F 25.3 °F 65% 29.77 in 10.0 mi ENE 15.0 mph 21.9 mph N/A   Mostly Cloudy
11:15 AM 36.1 °F 26.5 °F 25.7 °F 66% 29.76 in 10.0 mi ENE 16.1 mph 21.9 mph N/A   Mostly Cloudy
11:35 AM 36.5 °F 26.7 °F 25.3 °F 64% 29.75 in 10.0 mi ENE 17.3 mph 20.7 mph N/A   Mostly Cloudy
11:55 AM 35.6 °F 27.5 °F 25.0 °F 65% 29.74 in 10.0 mi ENE 11.5 mph 21.9 mph N/A   Scattered Clouds
12:15 PM 36.5 °F 27.0 °F 26.4 °F 67% 29.73 in 10.0 mi ENE 16.1 mph 25.3 mph N/A   Scattered Clouds
12:35 PM 36.0 °F 28.0 °F 26.1 °F 67% 29.71 in 10.0 mi NE 11.5 mph 24.2 mph N/A   Overcast
12:55 PM 36.3 °F 27.1 °F 26.2 °F 67% 29.70 in 10.0 mi NE 15.0 mph 23.0 mph N/A   Overcast
1:15 PM 36.7 °F 29.9 °F 26.4 °F 66% 29.69 in 10.0 mi NE 9.2 mph 18.4 mph N/A   Overcast
1:35 PM 36.5 °F 31.0 °F 26.8 °F 68% 29.69 in 10.0 mi NE 6.9 mph - N/A   Overcast
1:55 PM 36.3 °F 28.0 °F 26.1 °F 66% 29.68 in 10.0 mi ENE 12.7 mph 18.4 mph N/A   Overcast
2:15 PM 36.0 °F 28.5 °F 25.9 °F 67% 29.66 in 10.0 mi NE 10.4 mph 18.4 mph N/A   Overcast
2:35 PM 35.8 °F 27.8 °F 25.7 °F 67% 29.65 in 10.0 mi NE 11.5 mph 19.6 mph N/A   Overcast
2:55 PM 35.6 °F 28.0 °F 26.1 °F 68% 29.65 in 10.0 mi NE 10.4 mph 19.6 mph N/A   Overcast
3:15 PM 35.8 °F 28.8 °F 25.7 °F 67% 29.64 in 10.0 mi NE 9.2 mph 18.4 mph N/A   Overcast
3:35 PM 35.8 °F 28.8 °F 25.7 °F 67% 29.65 in 10.0 mi NE 9.2 mph - N/A   Overcast
3:55 PM 36.0 °F 29.0 °F 26.4 °F 68% 29.66 in 7.0 mi NE 9.2 mph 16.1 mph N/A Snow Light Snow
4:15 PM 36.0 °F 29.6 °F 27.0 °F 70% 29.66 in 10.0 mi NNE 8.1 mph - N/A   Mostly Cloudy
4:35 PM 35.8 °F 29.4 °F 27.0 °F 70% 29.66 in 10.0 mi NNE 8.1 mph 18.4 mph N/A   Mostly Cloudy
4:55 PM 35.6 °F 27.5 °F 27.3 °F 72% 29.66 in 10.0 mi NNE 11.5 mph 17.3 mph N/A   Mostly Cloudy
5:15 PM 34.7 °F 26.4 °F 28.2 °F 77% 29.67 in 7.0 mi NE 11.5 mph 20.7 mph N/A   Mostly Cloudy
5:35 PM 33.6 °F 26.2 °F 29.3 °F 84% 29.68 in 3.0 mi NNE 9.2 mph 18.4 mph N/A Snow Light Snow
5:55 PM 32.9 °F 24.7 °F 30.2 °F 90% 29.67 in 3.0 mi North 10.4 mph 17.3 mph N/A Snow Light Snow
6:15 PM 32.4 °F 23.5 °F 32.0 °F 99% 29.67 in 0.8 mi North 11.5 mph 17.3 mph N/A Snow Light Snow
6:35 PM 32.0 °F 23.0 °F 32.0 °F 100% 29.67 in 1.0 mi North 11.5 mph 18.4 mph N/A Snow Light Snow
6:55 PM 32.0 °F 23.6 °F 32.0 °F 100% 29.67 in 1.2 mi North 10.4 mph 16.1 mph N/A Snow Light Snow
7:15 PM 32.4 °F 24.0 °F 31.8 °F 98% 29.66 in 5.0 mi North 10.4 mph 17.3 mph N/A Snow Light Snow
7:35 PM 33.1 °F 23.9 °F 28.4 °F 83% 29.67 in 10.0 mi North 12.7 mph 18.4 mph N/A   Overcast
7:55 PM 32.5 °F 23.2 °F 28.9 °F 87% 29.68 in 10.0 mi North 12.7 mph 17.3 mph N/A Snow Light Snow
8:15 PM 32.5 °F 24.2 °F 29.3 °F 88% 29.68 in 3.0 mi North 10.4 mph 17.3 mph N/A Snow Light Snow
8:35 PM 32.0 °F 24.2 °F 30.2 °F 93% 29.69 in 2.5 mi North 9.2 mph - N/A Snow Light Snow
8:55 PM 32.4 °F 24.6 °F 31.8 °F 98% 29.70 in 1.8 mi North 9.2 mph - N/A Snow Snow
9:15 PM 32.0 °F 24.8 °F 32.0 °F 100% 29.70 in 1.2 mi North 8.1 mph - N/A Snow Light Snow
9:35 PM 32.2 °F 25.0 °F 32.2 °F 100% 29.70 in 2.0 mi North 8.1 mph - N/A Snow Light Snow
9:55 PM 32.2 °F 25.8 °F 32.0 °F 99% 29.70 in 4.0 mi North 6.9 mph - N/A Rain Light Rain
10:15 PM 32.0 °F 24.2 °F 32.0 °F 100% 29.70 in 1.8 mi North 9.2 mph - N/A Snow Light Snow
10:35 PM 32.0 °F 25.6 °F 32.0 °F 100% 29.69 in 1.8 mi North 6.9 mph - 0.01 in Rain Light Rain
10:55 PM 32.0 °F 24.2 °F 32.0 °F 100% 29.69 in 1.5 mi North 9.2 mph 16.1 mph 0.01 in Snow Light Snow
11:15 PM 32.4 °F 23.5 °F 31.3 °F 96% 29.69 in 3.0 mi North 11.5 mph 17.3 mph N/A Snow Light Snow
11:35 PM 32.4 °F 24.6 °F 30.2 °F 92% 29.69 in 10.0 mi North 9.2 mph 18.4 mph N/A   Overcast
11:55 PM 32.0 °F 24.2 °F 30.0 °F 92% 29.70 in 10.0 mi North 9.2 mph - N/A   Overcast